sensor_id;sensor_type;location;lat;lon;timestamp;temperature;humidity
5556;DHT22;2801;50.972;7.856;2022-07-22T00:00:38;15.50;99.90
5556;DHT22;2801;50.972;7.856;2022-07-22T00:03:05;15.50;99.90
5556;DHT22;2801;50.972;7.856;2022-07-22T00:05:33;15.60;99.90
5556;DHT22;2801;50.972;7.856;2022-07-22T00:08:00;15.60;99.90
5556;DHT22;2801;50.972;7.856;2022-07-22T00:10:27;15.60;99.90
5556;DHT22;2801;50.972;7.856;2022-07-22T00:12:54;15.60;99.90
5556;DHT22;2801;50.972;7.856;2022-07-22T00:15:21;15.60;99.90
5556;DHT22;2801;50.972;7.856;2022-07-22T00:17:48;15.60;99.90
5556;DHT22;2801;50.972;7.856;2022-07-22T00:20:15;15.50;99.90
5556;DHT22;2801;50.972;7.856;2022-07-22T00:22:42;15.50;99.90
5556;DHT22;2801;50.972;7.856;2022-07-22T00:25:09;15.50;99.90
5556;DHT22;2801;50.972;7.856;2022-07-22T00:27:36;15.50;99.90
5556;DHT22;2801;50.972;7.856;2022-07-22T00:30:04;15.50;99.90
5556;DHT22;2801;50.972;7.856;2022-07-22T00:32:31;15.50;99.90
5556;DHT22;2801;50.972;7.856;2022-07-22T00:34:58;15.50;99.90
5556;DHT22;2801;50.972;7.856;2022-07-22T00:37:25;15.50;99.90
5556;DHT22;2801;50.972;7.856;2022-07-22T00:39:52;15.50;99.90
5556;DHT22;2801;50.972;7.856;2022-07-22T00:42:19;15.50;99.90
5556;DHT22;2801;50.972;7.856;2022-07-22T00:44:49;15.50;99.90
5556;DHT22;2801;50.972;7.856;2022-07-22T00:47:16;15.40;99.90
5556;DHT22;2801;50.972;7.856;2022-07-22T00:49:43;15.50;99.90
5556;DHT22;2801;50.972;7.856;2022-07-22T00:52:10;15.40;99.90
5556;DHT22;2801;50.972;7.856;2022-07-22T00:54:38;15.40;99.90
5556;DHT22;2801;50.972;7.856;2022-07-22T00:57:05;15.40;99.90
5556;DHT22;2801;50.972;7.856;2022-07-22T00:59:32;15.50;99.90
5556;DHT22;2801;50.972;7.856;2022-07-22T01:01:59;15.50;99.90
5556;DHT22;2801;50.972;7.856;2022-07-22T01:04:26;15.50;99.90
5556;DHT22;2801;50.972;7.856;2022-07-22T01:06:53;15.40;99.90
5556;DHT22;2801;50.972;7.856;2022-07-22T01:09:21;15.50;99.90
5556;DHT22;2801;50.972;7.856;2022-07-22T01:11:48;15.50;99.90
5556;DHT22;2801;50.972;7.856;2022-07-22T01:14:15;15.50;99.90
5556;DHT22;2801;50.972;7.856;2022-07-22T01:16:42;15.40;99.90
5556;DHT22;2801;50.972;7.856;2022-07-22T01:19:15;15.40;99.90
5556;DHT22;2801;50.972;7.856;2022-07-22T01:21:42;15.40;99.90
5556;DHT22;2801;50.972;7.856;2022-07-22T01:24:09;15.40;99.90
5556;DHT22;2801;50.972;7.856;2022-07-22T01:26:36;15.40;99.90
5556;DHT22;2801;50.972;7.856;2022-07-22T01:29:04;15.50;99.90
5556;DHT22;2801;50.972;7.856;2022-07-22T01:31:31;15.40;99.90
5556;DHT22;2801;50.972;7.856;2022-07-22T01:33:58;15.40;99.90
5556;DHT22;2801;50.972;7.856;2022-07-22T01:36:25;15.40;99.90
5556;DHT22;2801;50.972;7.856;2022-07-22T01:38:53;15.40;99.90
5556;DHT22;2801;50.972;7.856;2022-07-22T01:41:20;15.40;99.90
5556;DHT22;2801;50.972;7.856;2022-07-22T01:43:47;15.40;99.90
5556;DHT22;2801;50.972;7.856;2022-07-22T01:46:14;15.40;99.90
5556;DHT22;2801;50.972;7.856;2022-07-22T01:48:43;15.50;99.90
5556;DHT22;2801;50.972;7.856;2022-07-22T01:51:11;15.40;99.90
5556;DHT22;2801;50.972;7.856;2022-07-22T01:53:38;15.40;99.90
5556;DHT22;2801;50.972;7.856;2022-07-22T01:56:05;15.40;99.90
5556;DHT22;2801;50.972;7.856;2022-07-22T01:58:32;15.40;99.90
5556;DHT22;2801;50.972;7.856;2022-07-22T02:01:06;15.40;99.90
5556;DHT22;2801;50.972;7.856;2022-07-22T02:03:35;15.30;99.90
5556;DHT22;2801;50.972;7.856;2022-07-22T02:06:02;15.30;99.90
5556;DHT22;2801;50.972;7.856;2022-07-22T02:08:30;15.40;99.90
5556;DHT22;2801;50.972;7.856;2022-07-22T02:10:57;15.30;99.90
5556;DHT22;2801;50.972;7.856;2022-07-22T02:13:24;15.30;99.90
5556;DHT22;2801;50.972;7.856;2022-07-22T02:15:51;15.30;99.90
5556;DHT22;2801;50.972;7.856;2022-07-22T02:18:18;15.30;99.90
5556;DHT22;2801;50.972;7.856;2022-07-22T02:20:45;15.30;99.90
5556;DHT22;2801;50.972;7.856;2022-07-22T02:23:13;15.30;99.90
5556;DHT22;2801;50.972;7.856;2022-07-22T02:25:41;15.30;99.90
5556;DHT22;2801;50.972;7.856;2022-07-22T02:28:09;15.40;99.90
5556;DHT22;2801;50.972;7.856;2022-07-22T02:30:36;15.30;99.90
5556;DHT22;2801;50.972;7.856;2022-07-22T02:33:04;15.30;99.90
5556;DHT22;2801;50.972;7.856;2022-07-22T02:35:32;15.30;99.90
5556;DHT22;2801;50.972;7.856;2022-07-22T02:37:59;15.30;99.90
5556;DHT22;2801;50.972;7.856;2022-07-22T02:40:28;15.30;99.90
5556;DHT22;2801;50.972;7.856;2022-07-22T02:42:55;15.30;99.90
5556;DHT22;2801;50.972;7.856;2022-07-22T02:45:22;15.30;99.90
5556;DHT22;2801;50.972;7.856;2022-07-22T02:47:55;15.30;99.90
5556;DHT22;2801;50.972;7.856;2022-07-22T02:50:23;15.30;99.90
5556;DHT22;2801;50.972;7.856;2022-07-22T02:52:51;15.30;99.90
5556;DHT22;2801;50.972;7.856;2022-07-22T02:55:18;15.30;99.90
5556;DHT22;2801;50.972;7.856;2022-07-22T02:57:45;15.40;99.90
5556;DHT22;2801;50.972;7.856;2022-07-22T03:00:13;15.40;99.90
5556;DHT22;2801;50.972;7.856;2022-07-22T03:02:41;15.40;99.90
5556;DHT22;2801;50.972;7.856;2022-07-22T03:05:08;15.40;99.90
5556;DHT22;2801;50.972;7.856;2022-07-22T03:07:36;15.30;99.90
5556;DHT22;2801;50.972;7.856;2022-07-22T03:10:03;15.30;99.90
5556;DHT22;2801;50.972;7.856;2022-07-22T03:12:31;15.30;99.90
5556;DHT22;2801;50.972;7.856;2022-07-22T03:14:58;15.30;99.90
5556;DHT22;2801;50.972;7.856;2022-07-22T03:17:24;15.30;99.90
5556;DHT22;2801;50.972;7.856;2022-07-22T03:19:51;15.30;99.90
5556;DHT22;2801;50.972;7.856;2022-07-22T03:22:18;15.30;99.90
5556;DHT22;2801;50.972;7.856;2022-07-22T03:24:45;15.30;99.90
5556;DHT22;2801;50.972;7.856;2022-07-22T03:27:12;15.30;99.90
5556;DHT22;2801;50.972;7.856;2022-07-22T03:29:39;15.20;99.90
5556;DHT22;2801;50.972;7.856;2022-07-22T03:32:06;15.20;99.90
5556;DHT22;2801;50.972;7.856;2022-07-22T03:34:33;15.20;99.90
5556;DHT22;2801;50.972;7.856;2022-07-22T03:37:00;15.20;99.90
5556;DHT22;2801;50.972;7.856;2022-07-22T03:39:27;15.20;99.90
5556;DHT22;2801;50.972;7.856;2022-07-22T03:41:54;15.20;99.90
5556;DHT22;2801;50.972;7.856;2022-07-22T03:44:21;15.30;99.90
5556;DHT22;2801;50.972;7.856;2022-07-22T03:46:48;15.30;99.90
5556;DHT22;2801;50.972;7.856;2022-07-22T03:49:15;15.30;99.90
5556;DHT22;2801;50.972;7.856;2022-07-22T03:51:42;15.30;99.90
5556;DHT22;2801;50.972;7.856;2022-07-22T03:54:09;15.30;99.90
5556;DHT22;2801;50.972;7.856;2022-07-22T03:56:36;15.30;99.90
5556;DHT22;2801;50.972;7.856;2022-07-22T03:59:03;15.40;99.90
5556;DHT22;2801;50.972;7.856;2022-07-22T04:01:30;15.30;99.90
5556;DHT22;2801;50.972;7.856;2022-07-22T04:03:57;15.40;99.90
5556;DHT22;2801;50.972;7.856;2022-07-22T04:06:30;15.30;99.90
5556;DHT22;2801;50.972;7.856;2022-07-22T04:08:58;15.40;99.90
5556;DHT22;2801;50.972;7.856;2022-07-22T04:11:26;15.40;99.90
5556;DHT22;2801;50.972;7.856;2022-07-22T04:13:53;15.40;99.90
5556;DHT22;2801;50.972;7.856;2022-07-22T04:16:20;15.40;99.90
5556;DHT22;2801;50.972;7.856;2022-07-22T04:18:47;15.40;99.90
5556;DHT22;2801;50.972;7.856;2022-07-22T04:21:14;15.40;99.90
5556;DHT22;2801;50.972;7.856;2022-07-22T04:23:41;15.40;99.90
5556;DHT22;2801;50.972;7.856;2022-07-22T04:26:08;15.40;99.90
5556;DHT22;2801;50.972;7.856;2022-07-22T04:28:35;15.40;99.90
5556;DHT22;2801;50.972;7.856;2022-07-22T04:31:03;15.40;99.90
5556;DHT22;2801;50.972;7.856;2022-07-22T04:33:30;15.40;99.90
5556;DHT22;2801;50.972;7.856;2022-07-22T04:35:57;15.40;99.90
5556;DHT22;2801;50.972;7.856;2022-07-22T04:38:25;15.40;99.90
5556;DHT22;2801;50.972;7.856;2022-07-22T04:40:52;15.40;99.90
5556;DHT22;2801;50.972;7.856;2022-07-22T04:43:21;15.40;99.90
5556;DHT22;2801;50.972;7.856;2022-07-22T04:45:48;15.40;99.90
5556;DHT22;2801;50.972;7.856;2022-07-22T04:48:16;15.40;99.90
5556;DHT22;2801;50.972;7.856;2022-07-22T04:50:43;15.40;99.90
5556;DHT22;2801;50.972;7.856;2022-07-22T04:53:11;15.40;99.90
5556;DHT22;2801;50.972;7.856;2022-07-22T04:55:38;15.30;99.90
5556;DHT22;2801;50.972;7.856;2022-07-22T04:58:06;15.30;99.90
5556;DHT22;2801;50.972;7.856;2022-07-22T05:00:40;15.30;99.90
5556;DHT22;2801;50.972;7.856;2022-07-22T05:03:07;15.30;99.90
5556;DHT22;2801;50.972;7.856;2022-07-22T05:05:35;15.30;99.90
5556;DHT22;2801;50.972;7.856;2022-07-22T05:08:02;15.30;99.90
5556;DHT22;2801;50.972;7.856;2022-07-22T05:10:29;15.30;99.90
5556;DHT22;2801;50.972;7.856;2022-07-22T05:12:56;15.30;99.90
5556;DHT22;2801;50.972;7.856;2022-07-22T05:15:23;15.30;99.90
5556;DHT22;2801;50.972;7.856;2022-07-22T05:17:50;15.40;99.90
5556;DHT22;2801;50.972;7.856;2022-07-22T05:20:17;15.40;99.90
5556;DHT22;2801;50.972;7.856;2022-07-22T05:22:44;15.40;99.90
5556;DHT22;2801;50.972;7.856;2022-07-22T05:25:11;15.40;99.90
5556;DHT22;2801;50.972;7.856;2022-07-22T05:27:38;15.50;99.90
5556;DHT22;2801;50.972;7.856;2022-07-22T05:30:05;15.50;99.90
5556;DHT22;2801;50.972;7.856;2022-07-22T05:32:33;15.60;99.90
5556;DHT22;2801;50.972;7.856;2022-07-22T05:35:00;15.60;99.90
5556;DHT22;2801;50.972;7.856;2022-07-22T05:37:28;15.60;99.90
5556;DHT22;2801;50.972;7.856;2022-07-22T05:39:55;15.70;99.90
5556;DHT22;2801;50.972;7.856;2022-07-22T05:42:22;15.70;99.90
5556;DHT22;2801;50.972;7.856;2022-07-22T05:44:49;15.70;99.90
5556;DHT22;2801;50.972;7.856;2022-07-22T05:47:16;15.80;99.90
5556;DHT22;2801;50.972;7.856;2022-07-22T05:49:43;15.90;99.90
5556;DHT22;2801;50.972;7.856;2022-07-22T05:52:11;15.90;99.90
5556;DHT22;2801;50.972;7.856;2022-07-22T05:54:38;15.80;99.90
5556;DHT22;2801;50.972;7.856;2022-07-22T05:57:06;15.90;99.90
5556;DHT22;2801;50.972;7.856;2022-07-22T05:59:36;15.90;99.90
5556;DHT22;2801;50.972;7.856;2022-07-22T06:02:04;16.00;99.90
5556;DHT22;2801;50.972;7.856;2022-07-22T06:04:32;16.00;99.90
5556;DHT22;2801;50.972;7.856;2022-07-22T06:07:00;16.00;99.90
5556;DHT22;2801;50.972;7.856;2022-07-22T06:09:27;16.00;99.90
5556;DHT22;2801;50.972;7.856;2022-07-22T06:11:54;16.10;99.90
5556;DHT22;2801;50.972;7.856;2022-07-22T06:14:21;16.00;99.90
5556;DHT22;2801;50.972;7.856;2022-07-22T06:16:49;16.00;99.90
5556;DHT22;2801;50.972;7.856;2022-07-22T06:19:16;16.10;99.90
5556;DHT22;2801;50.972;7.856;2022-07-22T06:21:43;16.00;99.90
5556;DHT22;2801;50.972;7.856;2022-07-22T06:24:11;15.90;99.90
5556;DHT22;2801;50.972;7.856;2022-07-22T06:26:38;15.90;99.90
5556;DHT22;2801;50.972;7.856;2022-07-22T06:29:05;15.80;99.90
5556;DHT22;2801;50.972;7.856;2022-07-22T06:31:32;15.90;99.90
5556;DHT22;2801;50.972;7.856;2022-07-22T06:33:59;15.90;99.90
5556;DHT22;2801;50.972;7.856;2022-07-22T06:36:26;15.90;99.90
5556;DHT22;2801;50.972;7.856;2022-07-22T06:38:53;15.90;99.90
5556;DHT22;2801;50.972;7.856;2022-07-22T06:41:21;16.00;99.90
5556;DHT22;2801;50.972;7.856;2022-07-22T06:43:48;16.00;99.90
5556;DHT22;2801;50.972;7.856;2022-07-22T06:46:15;16.00;99.90
5556;DHT22;2801;50.972;7.856;2022-07-22T06:48:43;16.00;99.90
5556;DHT22;2801;50.972;7.856;2022-07-22T06:51:10;16.00;99.90
5556;DHT22;2801;50.972;7.856;2022-07-22T06:53:37;16.00;99.90
5556;DHT22;2801;50.972;7.856;2022-07-22T06:56:05;16.00;99.90
5556;DHT22;2801;50.972;7.856;2022-07-22T06:58:38;16.00;99.90
5556;DHT22;2801;50.972;7.856;2022-07-22T07:01:05;16.00;99.90
5556;DHT22;2801;50.972;7.856;2022-07-22T07:03:32;16.10;99.90
5556;DHT22;2801;50.972;7.856;2022-07-22T07:06:03;16.10;99.90
5556;DHT22;2801;50.972;7.856;2022-07-22T07:08:31;16.30;99.90
5556;DHT22;2801;50.972;7.856;2022-07-22T07:10:57;16.20;99.90
5556;DHT22;2801;50.972;7.856;2022-07-22T07:13:24;16.20;99.90
5556;DHT22;2801;50.972;7.856;2022-07-22T07:15:52;16.30;99.90
5556;DHT22;2801;50.972;7.856;2022-07-22T07:18:19;16.30;99.90
5556;DHT22;2801;50.972;7.856;2022-07-22T07:20:46;16.30;99.90
5556;DHT22;2801;50.972;7.856;2022-07-22T07:23:13;16.30;99.90
5556;DHT22;2801;50.972;7.856;2022-07-22T07:25:41;16.40;99.90
5556;DHT22;2801;50.972;7.856;2022-07-22T07:28:08;16.50;99.90
5556;DHT22;2801;50.972;7.856;2022-07-22T07:30:35;16.50;99.90
5556;DHT22;2801;50.972;7.856;2022-07-22T07:33:02;16.50;99.90
5556;DHT22;2801;50.972;7.856;2022-07-22T07:35:30;16.50;99.90
5556;DHT22;2801;50.972;7.856;2022-07-22T07:37:57;16.60;99.90
5556;DHT22;2801;50.972;7.856;2022-07-22T07:40:25;16.60;99.90
5556;DHT22;2801;50.972;7.856;2022-07-22T07:42:52;16.60;99.90
5556;DHT22;2801;50.972;7.856;2022-07-22T07:45:29;16.70;99.90
5556;DHT22;2801;50.972;7.856;2022-07-22T07:47:56;16.80;99.90
5556;DHT22;2801;50.972;7.856;2022-07-22T07:50:24;16.90;99.90
5556;DHT22;2801;50.972;7.856;2022-07-22T07:52:51;17.00;99.90
5556;DHT22;2801;50.972;7.856;2022-07-22T07:55:20;17.10;99.90
5556;DHT22;2801;50.972;7.856;2022-07-22T07:57:48;17.00;99.90
5556;DHT22;2801;50.972;7.856;2022-07-22T08:00:20;17.20;99.90
5556;DHT22;2801;50.972;7.856;2022-07-22T08:02:49;17.30;99.90
5556;DHT22;2801;50.972;7.856;2022-07-22T08:05:17;17.40;99.90
5556;DHT22;2801;50.972;7.856;2022-07-22T08:07:47;17.50;99.90
5556;DHT22;2801;50.972;7.856;2022-07-22T08:10:16;17.60;99.90
5556;DHT22;2801;50.972;7.856;2022-07-22T08:13:04;17.70;99.90
5556;DHT22;2801;50.972;7.856;2022-07-22T08:15:34;17.80;99.90
5556;DHT22;2801;50.972;7.856;2022-07-22T08:18:03;17.90;99.90
5556;DHT22;2801;50.972;7.856;2022-07-22T08:20:31;17.90;99.90
5556;DHT22;2801;50.972;7.856;2022-07-22T08:22:58;17.90;99.90
5556;DHT22;2801;50.972;7.856;2022-07-22T08:25:26;17.90;99.90
5556;DHT22;2801;50.972;7.856;2022-07-22T08:27:54;17.90;99.90
5556;DHT22;2801;50.972;7.856;2022-07-22T08:30:21;18.00;99.90
5556;DHT22;2801;50.972;7.856;2022-07-22T08:32:50;18.00;99.90
5556;DHT22;2801;50.972;7.856;2022-07-22T08:35:17;18.00;99.90
5556;DHT22;2801;50.972;7.856;2022-07-22T08:37:46;18.00;99.90
5556;DHT22;2801;50.972;7.856;2022-07-22T08:40:15;18.30;99.90
5556;DHT22;2801;50.972;7.856;2022-07-22T08:42:45;18.20;99.90
5556;DHT22;2801;50.972;7.856;2022-07-22T08:45:14;18.20;99.90
5556;DHT22;2801;50.972;7.856;2022-07-22T08:47:45;18.20;99.90
5556;DHT22;2801;50.972;7.856;2022-07-22T08:50:15;18.20;99.90
5556;DHT22;2801;50.972;7.856;2022-07-22T08:52:43;18.20;99.90
5556;DHT22;2801;50.972;7.856;2022-07-22T08:55:10;18.20;99.90
5556;DHT22;2801;50.972;7.856;2022-07-22T08:57:37;18.20;99.90
5556;DHT22;2801;50.972;7.856;2022-07-22T09:00:12;18.20;99.90
5556;DHT22;2801;50.972;7.856;2022-07-22T09:02:42;18.20;99.90
5556;DHT22;2801;50.972;7.856;2022-07-22T09:05:11;18.30;99.90
5556;DHT22;2801;50.972;7.856;2022-07-22T09:08:02;18.30;99.90
5556;DHT22;2801;50.972;7.856;2022-07-22T09:10:33;18.30;99.90
5556;DHT22;2801;50.972;7.856;2022-07-22T09:13:04;18.30;99.90
5556;DHT22;2801;50.972;7.856;2022-07-22T09:15:39;18.20;99.90
5556;DHT22;2801;50.972;7.856;2022-07-22T09:18:12;18.30;99.90
5556;DHT22;2801;50.972;7.856;2022-07-22T09:20:39;18.30;99.90
5556;DHT22;2801;50.972;7.856;2022-07-22T09:23:12;18.30;99.90
5556;DHT22;2801;50.972;7.856;2022-07-22T09:25:45;18.40;99.90
5556;DHT22;2801;50.972;7.856;2022-07-22T09:28:21;18.40;99.90
5556;DHT22;2801;50.972;7.856;2022-07-22T09:30:53;18.50;99.90
5556;DHT22;2801;50.972;7.856;2022-07-22T09:33:24;18.60;99.90
5556;DHT22;2801;50.972;7.856;2022-07-22T09:35:52;18.60;99.90
5556;DHT22;2801;50.972;7.856;2022-07-22T09:38:29;18.60;99.90
5556;DHT22;2801;50.972;7.856;2022-07-22T09:40:59;18.60;99.90
5556;DHT22;2801;50.972;7.856;2022-07-22T09:43:26;18.50;99.90
5556;DHT22;2801;50.972;7.856;2022-07-22T09:45:59;18.50;99.90
5556;DHT22;2801;50.972;7.856;2022-07-22T09:48:27;18.50;99.90
5556;DHT22;2801;50.972;7.856;2022-07-22T09:50:55;18.50;99.90
5556;DHT22;2801;50.972;7.856;2022-07-22T09:53:28;18.60;99.90
5556;DHT22;2801;50.972;7.856;2022-07-22T09:55:57;18.60;99.90
5556;DHT22;2801;50.972;7.856;2022-07-22T09:58:26;18.60;99.90
5556;DHT22;2801;50.972;7.856;2022-07-22T10:00:57;18.60;99.90
5556;DHT22;2801;50.972;7.856;2022-07-22T10:03:29;18.60;99.90
5556;DHT22;2801;50.972;7.856;2022-07-22T10:05:59;18.70;99.90
5556;DHT22;2801;50.972;7.856;2022-07-22T10:08:30;18.70;99.90
5556;DHT22;2801;50.972;7.856;2022-07-22T10:11:00;18.70;99.90
5556;DHT22;2801;50.972;7.856;2022-07-22T10:13:30;18.90;99.90
5556;DHT22;2801;50.972;7.856;2022-07-22T10:15:58;19.00;99.90
5556;DHT22;2801;50.972;7.856;2022-07-22T10:18:27;19.10;99.90
5556;DHT22;2801;50.972;7.856;2022-07-22T10:21:05;19.20;99.90
5556;DHT22;2801;50.972;7.856;2022-07-22T10:23:36;19.40;99.90
5556;DHT22;2801;50.972;7.856;2022-07-22T10:29:47;19.60;99.90
5556;DHT22;2801;50.972;7.856;2022-07-22T10:40:21;19.70;99.90
5556;DHT22;2801;50.972;7.856;2022-07-22T10:45:25;19.60;99.90
5556;DHT22;2801;50.972;7.856;2022-07-22T10:47:55;19.60;99.90
5556;DHT22;2801;50.972;7.856;2022-07-22T10:53:04;19.80;99.90
5556;DHT22;2801;50.972;7.856;2022-07-22T10:55:33;19.80;99.90
5556;DHT22;2801;50.972;7.856;2022-07-22T11:01:02;19.90;99.90
5556;DHT22;2801;50.972;7.856;2022-07-22T11:03:37;19.90;99.90
5556;DHT22;2801;50.972;7.856;2022-07-22T11:06:21;19.90;99.90
5556;DHT22;2801;50.972;7.856;2022-07-22T11:08:57;19.90;99.90
5556;DHT22;2801;50.972;7.856;2022-07-22T11:16:44;20.20;99.90
5556;DHT22;2801;50.972;7.856;2022-07-22T11:19:13;20.30;99.90
5556;DHT22;2801;50.972;7.856;2022-07-22T11:21:40;20.50;99.90
5556;DHT22;2801;50.972;7.856;2022-07-22T11:24:11;20.70;99.90
5556;DHT22;2801;50.972;7.856;2022-07-22T11:26:45;20.80;99.90
5556;DHT22;2801;50.972;7.856;2022-07-22T11:29:28;20.90;99.90
5556;DHT22;2801;50.972;7.856;2022-07-22T11:32:06;21.20;99.90
5556;DHT22;2801;50.972;7.856;2022-07-22T11:34:38;21.40;99.90
5556;DHT22;2801;50.972;7.856;2022-07-22T11:37:16;21.70;99.90
5556;DHT22;2801;50.972;7.856;2022-07-22T11:39:45;22.00;99.90
5556;DHT22;2801;50.972;7.856;2022-07-22T11:42:13;22.40;99.90
5556;DHT22;2801;50.972;7.856;2022-07-22T11:44:40;22.70;99.90
5556;DHT22;2801;50.972;7.856;2022-07-22T11:47:08;22.80;99.90
5556;DHT22;2801;50.972;7.856;2022-07-22T11:49:37;22.80;99.90
5556;DHT22;2801;50.972;7.856;2022-07-22T11:52:09;22.70;99.90
5556;DHT22;2801;50.972;7.856;2022-07-22T11:54:44;22.70;99.90
5556;DHT22;2801;50.972;7.856;2022-07-22T11:57:13;22.90;99.90
5556;DHT22;2801;50.972;7.856;2022-07-22T11:59:41;22.90;99.90
5556;DHT22;2801;50.972;7.856;2022-07-22T12:02:08;22.60;99.90
5556;DHT22;2801;50.972;7.856;2022-07-22T12:04:39;22.50;99.90
5556;DHT22;2801;50.972;7.856;2022-07-22T12:07:10;22.30;99.90
5556;DHT22;2801;50.972;7.856;2022-07-22T12:09:38;22.20;99.90
5556;DHT22;2801;50.972;7.856;2022-07-22T12:12:08;22.00;99.90
5556;DHT22;2801;50.972;7.856;2022-07-22T12:14:35;21.90;99.90
5556;DHT22;2801;50.972;7.856;2022-07-22T12:17:06;21.90;99.90
5556;DHT22;2801;50.972;7.856;2022-07-22T12:19:39;22.10;99.90
5556;DHT22;2801;50.972;7.856;2022-07-22T12:22:09;22.50;99.90
5556;DHT22;2801;50.972;7.856;2022-07-22T12:24:45;22.90;99.90
5556;DHT22;2801;50.972;7.856;2022-07-22T12:27:23;23.00;99.90
5556;DHT22;2801;50.972;7.856;2022-07-22T12:29:50;23.00;99.90
5556;DHT22;2801;50.972;7.856;2022-07-22T12:32:25;22.90;99.90
5556;DHT22;2801;50.972;7.856;2022-07-22T12:37:23;22.70;99.90
5556;DHT22;2801;50.972;7.856;2022-07-22T12:40:00;22.70;99.90
5556;DHT22;2801;50.972;7.856;2022-07-22T12:42:33;22.80;99.90
5556;DHT22;2801;50.972;7.856;2022-07-22T12:45:11;22.90;99.90
5556;DHT22;2801;50.972;7.856;2022-07-22T12:47:49;22.90;99.90
5556;DHT22;2801;50.972;7.856;2022-07-22T12:53:00;22.90;99.90
5556;DHT22;2801;50.972;7.856;2022-07-22T12:55:53;22.90;99.90
5556;DHT22;2801;50.972;7.856;2022-07-22T12:58:30;23.10;99.90
5556;DHT22;2801;50.972;7.856;2022-07-22T13:01:00;23.30;99.90
5556;DHT22;2801;50.972;7.856;2022-07-22T13:03:28;23.40;99.90
5556;DHT22;2801;50.972;7.856;2022-07-22T13:06:00;23.50;99.90
5556;DHT22;2801;50.972;7.856;2022-07-22T13:08:28;23.50;99.90
5556;DHT22;2801;50.972;7.856;2022-07-22T13:11:12;23.30;99.90
5556;DHT22;2801;50.972;7.856;2022-07-22T13:13:40;23.30;99.90
5556;DHT22;2801;50.972;7.856;2022-07-22T13:16:09;23.40;99.90
5556;DHT22;2801;50.972;7.856;2022-07-22T13:18:38;23.50;99.90
5556;DHT22;2801;50.972;7.856;2022-07-22T13:21:05;23.60;99.90
5556;DHT22;2801;50.972;7.856;2022-07-22T13:23:32;23.60;99.90
5556;DHT22;2801;50.972;7.856;2022-07-22T13:25:59;23.60;99.90
5556;DHT22;2801;50.972;7.856;2022-07-22T13:28:26;23.70;99.90
5556;DHT22;2801;50.972;7.856;2022-07-22T13:30:53;23.70;99.90
5556;DHT22;2801;50.972;7.856;2022-07-22T13:33:20;23.80;99.90
5556;DHT22;2801;50.972;7.856;2022-07-22T13:35:47;24.00;99.90
5556;DHT22;2801;50.972;7.856;2022-07-22T13:38:14;24.10;99.90
5556;DHT22;2801;50.972;7.856;2022-07-22T13:40:44;24.10;99.90
5556;DHT22;2801;50.972;7.856;2022-07-22T13:43:20;24.10;99.90
5556;DHT22;2801;50.972;7.856;2022-07-22T13:45:48;24.10;99.90
5556;DHT22;2801;50.972;7.856;2022-07-22T13:48:16;24.00;99.90
5556;DHT22;2801;50.972;7.856;2022-07-22T13:50:45;24.10;99.90
5556;DHT22;2801;50.972;7.856;2022-07-22T13:53:13;24.10;99.90
5556;DHT22;2801;50.972;7.856;2022-07-22T13:55:40;24.10;99.90
5556;DHT22;2801;50.972;7.856;2022-07-22T13:58:08;24.20;99.90
5556;DHT22;2801;50.972;7.856;2022-07-22T14:00:35;24.50;99.90
5556;DHT22;2801;50.972;7.856;2022-07-22T14:03:05;24.60;99.90
5556;DHT22;2801;50.972;7.856;2022-07-22T14:05:33;24.60;99.90
5556;DHT22;2801;50.972;7.856;2022-07-22T14:07:59;24.50;99.90
5556;DHT22;2801;50.972;7.856;2022-07-22T14:10:26;24.50;99.90
5556;DHT22;2801;50.972;7.856;2022-07-22T14:12:53;24.40;99.90
5556;DHT22;2801;50.972;7.856;2022-07-22T14:15:21;24.40;99.90
5556;DHT22;2801;50.972;7.856;2022-07-22T14:17:48;24.50;99.90
5556;DHT22;2801;50.972;7.856;2022-07-22T14:20:15;24.40;99.90
5556;DHT22;2801;50.972;7.856;2022-07-22T14:22:42;24.30;99.90
5556;DHT22;2801;50.972;7.856;2022-07-22T14:25:09;24.20;99.90
5556;DHT22;2801;50.972;7.856;2022-07-22T14:27:36;24.20;99.90
5556;DHT22;2801;50.972;7.856;2022-07-22T14:30:04;24.10;99.90
5556;DHT22;2801;50.972;7.856;2022-07-22T14:32:31;24.10;99.90
5556;DHT22;2801;50.972;7.856;2022-07-22T14:34:58;24.20;99.90
5556;DHT22;2801;50.972;7.856;2022-07-22T14:37:25;24.20;99.90
5556;DHT22;2801;50.972;7.856;2022-07-22T14:39:54;24.20;99.90
5556;DHT22;2801;50.972;7.856;2022-07-22T14:42:21;24.30;99.90
5556;DHT22;2801;50.972;7.856;2022-07-22T14:44:48;24.40;99.90
5556;DHT22;2801;50.972;7.856;2022-07-22T14:47:15;24.70;99.90
5556;DHT22;2801;50.972;7.856;2022-07-22T14:49:42;25.00;99.90
5556;DHT22;2801;50.972;7.856;2022-07-22T14:52:09;25.00;99.90
5556;DHT22;2801;50.972;7.856;2022-07-22T14:54:36;25.10;99.90
5556;DHT22;2801;50.972;7.856;2022-07-22T14:57:03;25.10;99.90
5556;DHT22;2801;50.972;7.856;2022-07-22T14:59:30;25.10;99.90
5556;DHT22;2801;50.972;7.856;2022-07-22T15:01:57;25.20;99.90
5556;DHT22;2801;50.972;7.856;2022-07-22T15:04:24;25.20;99.90
5556;DHT22;2801;50.972;7.856;2022-07-22T15:06:51;25.30;99.90
5556;DHT22;2801;50.972;7.856;2022-07-22T15:09:18;25.30;99.90
5556;DHT22;2801;50.972;7.856;2022-07-22T15:11:45;25.20;99.90
5556;DHT22;2801;50.972;7.856;2022-07-22T15:14:12;25.10;99.90
5556;DHT22;2801;50.972;7.856;2022-07-22T15:16:39;24.90;99.90
5556;DHT22;2801;50.972;7.856;2022-07-22T15:19:06;24.80;99.90
5556;DHT22;2801;50.972;7.856;2022-07-22T15:21:33;24.70;99.90
5556;DHT22;2801;50.972;7.856;2022-07-22T15:24:00;24.70;99.90
5556;DHT22;2801;50.972;7.856;2022-07-22T15:26:28;24.70;99.90
5556;DHT22;2801;50.972;7.856;2022-07-22T15:28:55;24.80;99.90
5556;DHT22;2801;50.972;7.856;2022-07-22T15:31:22;24.80;99.90
5556;DHT22;2801;50.972;7.856;2022-07-22T15:33:49;24.80;99.90
5556;DHT22;2801;50.972;7.856;2022-07-22T15:36:16;25.00;99.90
5556;DHT22;2801;50.972;7.856;2022-07-22T15:38:43;25.10;99.90
5556;DHT22;2801;50.972;7.856;2022-07-22T15:41:10;25.10;99.90
5556;DHT22;2801;50.972;7.856;2022-07-22T15:43:39;25.20;99.90
5556;DHT22;2801;50.972;7.856;2022-07-22T15:46:08;25.40;99.90
5556;DHT22;2801;50.972;7.856;2022-07-22T15:48:37;25.40;99.90
5556;DHT22;2801;50.972;7.856;2022-07-22T15:51:07;25.50;99.90
5556;DHT22;2801;50.972;7.856;2022-07-22T15:53:35;25.40;99.90
5556;DHT22;2801;50.972;7.856;2022-07-22T15:56:03;25.30;99.90
5556;DHT22;2801;50.972;7.856;2022-07-22T15:58:30;25.20;99.90
5556;DHT22;2801;50.972;7.856;2022-07-22T16:01:35;25.10;99.90
5556;DHT22;2801;50.972;7.856;2022-07-22T16:04:03;24.90;99.90
5556;DHT22;2801;50.972;7.856;2022-07-22T16:06:30;24.90;99.90
5556;DHT22;2801;50.972;7.856;2022-07-22T16:08:58;24.80;99.90
5556;DHT22;2801;50.972;7.856;2022-07-22T16:11:28;24.80;99.90
5556;DHT22;2801;50.972;7.856;2022-07-22T16:13:55;24.80;99.90
5556;DHT22;2801;50.972;7.856;2022-07-22T16:16:22;25.00;99.90
5556;DHT22;2801;50.972;7.856;2022-07-22T16:18:49;24.90;99.90
5556;DHT22;2801;50.972;7.856;2022-07-22T16:21:16;24.90;99.90
5556;DHT22;2801;50.972;7.856;2022-07-22T16:23:46;24.80;99.90
5556;DHT22;2801;50.972;7.856;2022-07-22T16:26:13;24.80;99.90
5556;DHT22;2801;50.972;7.856;2022-07-22T16:28:40;24.70;99.90
5556;DHT22;2801;50.972;7.856;2022-07-22T16:31:12;24.70;99.90
5556;DHT22;2801;50.972;7.856;2022-07-22T16:33:40;24.50;99.90
5556;DHT22;2801;50.972;7.856;2022-07-22T16:36:07;24.40;99.90
5556;DHT22;2801;50.972;7.856;2022-07-22T16:38:35;24.20;99.90
5556;DHT22;2801;50.972;7.856;2022-07-22T16:41:02;24.10;99.90